createdAt,value
2016-10-25T00:04:05.358Z,1018.82
2016-10-25T00:09:05.308Z,1018.82
2016-10-25T00:14:05.258Z,1018.85
2016-10-25T00:19:05.206Z,1018.91
2016-10-25T00:24:05.154Z,1019
2016-10-25T00:29:05.102Z,1019.07
2016-10-25T00:34:05.050Z,1019.18
2016-10-25T00:39:04.999Z,1019.26
2016-10-25T00:44:04.946Z,1019.32
2016-10-25T00:49:04.894Z,1019.46
2016-10-25T00:54:04.842Z,1019.44
2016-10-25T00:59:04.789Z,1019.45
2016-10-25T01:04:04.738Z,1019.57
2016-10-25T01:09:04.686Z,1019.64
2016-10-25T01:14:04.632Z,1019.7
2016-10-25T01:19:04.580Z,1019.67
2016-10-25T01:24:04.528Z,1019.79
2016-10-25T01:29:04.473Z,1019.83
2016-10-25T01:34:04.421Z,1019.89
2016-10-25T01:39:04.367Z,1019.86
2016-10-25T01:44:04.313Z,1019.84
2016-10-25T01:49:04.259Z,1019.9
2016-10-25T01:54:04.209Z,1019.9
2016-10-25T01:59:04.153Z,1019.93
2016-10-25T02:04:04.104Z,1019.92
2016-10-25T02:09:04.045Z,1019.95
2016-10-25T02:14:03.994Z,1019.96
2016-10-25T02:19:03.939Z,1019.97
2016-10-25T02:24:03.889Z,1019.99
2016-10-25T02:29:03.831Z,1020.08
2016-10-25T02:34:03.777Z,1020.16
2016-10-25T02:39:03.723Z,1020.15
2016-10-25T02:44:03.669Z,1020.23
2016-10-25T02:49:03.615Z,1020.21
2016-10-25T02:54:03.560Z,1020.26
2016-10-25T02:59:03.505Z,1020.26
2016-10-25T03:04:03.449Z,1020.29
2016-10-25T03:09:03.394Z,1020.34
2016-10-25T03:14:03.342Z,1020.45
2016-10-25T03:19:03.288Z,1020.56
2016-10-25T03:24:03.233Z,1020.66
2016-10-25T03:29:03.179Z,1020.73
2016-10-25T03:34:03.125Z,1020.72
2016-10-25T03:39:03.068Z,1020.77
2016-10-25T03:44:03.017Z,1020.8
2016-10-25T03:49:02.961Z,1020.82
2016-10-25T03:54:02.907Z,1020.87
2016-10-25T03:59:02.851Z,1020.92
2016-10-25T04:04:02.796Z,1020.91
2016-10-25T04:09:02.742Z,1020.94
2016-10-25T04:14:02.686Z,1020.96
2016-10-25T04:19:02.634Z,1020.97
2016-10-25T04:24:02.579Z,1021.08
2016-10-25T04:29:02.527Z,1021.04
2016-10-25T04:34:02.466Z,1021.08
2016-10-25T04:39:02.413Z,1021.19
2016-10-25T04:44:02.357Z,1021.23
2016-10-25T04:49:02.306Z,1021.39
2016-10-25T04:54:02.249Z,1021.49
2016-10-25T04:59:02.193Z,1021.54
2016-10-25T05:04:02.139Z,1021.58
2016-10-25T05:09:02.090Z,1021.65
2016-10-25T05:14:02.030Z,1021.76
2016-10-25T05:19:01.975Z,1021.82
2016-10-25T05:24:01.921Z,1021.89
2016-10-25T05:29:01.864Z,1021.97
2016-10-25T05:34:01.810Z,1022.12
2016-10-25T05:39:01.751Z,1022.25
2016-10-25T05:44:01.703Z,1022.28
2016-10-25T05:49:01.641Z,1022.36
2016-10-25T05:54:01.597Z,1022.42
2016-10-25T05:59:01.536Z,1022.43
2016-10-25T06:04:01.481Z,1022.48
2016-10-25T06:09:01.427Z,1022.55
2016-10-25T06:14:01.375Z,1022.63
2016-10-25T06:19:01.321Z,1022.66
2016-10-25T06:24:01.267Z,1022.88
2016-10-25T06:29:01.216Z,1022.97
2016-10-25T06:34:01.161Z,1023.17
2016-10-25T06:39:01.109Z,1023.32
2016-10-25T06:44:01.055Z,1023.4
2016-10-25T06:49:01.011Z,1023.43
2016-10-25T06:54:00.953Z,1023.5
2016-10-25T06:59:00.901Z,1023.59
2016-10-25T07:04:00.852Z,1023.68
2016-10-25T07:09:00.797Z,1023.75
2016-10-25T07:14:00.746Z,1023.82
2016-10-25T07:19:00.694Z,1023.94
2016-10-25T07:24:00.640Z,1024.07
2016-10-25T07:29:00.590Z,1024.16
2016-10-25T07:34:00.534Z,1024.22
2016-10-25T07:39:00.491Z,1024.3
2016-10-25T07:44:00.430Z,1024.34
2016-10-25T07:49:00.378Z,1024.37
2016-10-25T07:54:00.322Z,1024.35
2016-10-25T07:59:00.270Z,1024.41
2016-10-25T08:04:00.216Z,1024.51
2016-10-25T08:09:00.164Z,1024.49
2016-10-25T08:14:00.110Z,1024.6
2016-10-25T08:19:00.058Z,1024.58
2016-10-25T08:24:00.008Z,1024.5
2016-10-25T08:28:59.957Z,1024.54
2016-10-25T08:33:59.902Z,1024.59
2016-10-25T08:38:59.850Z,1024.59
2016-10-25T08:43:59.798Z,1024.66
2016-10-25T08:48:59.744Z,1024.75
2016-10-25T08:53:59.692Z,1024.85
2016-10-25T08:58:59.640Z,1024.87
2016-10-25T09:03:59.585Z,1024.86
2016-10-25T09:08:59.533Z,1024.88
2016-10-25T09:13:59.480Z,1024.91
2016-10-25T09:18:59.427Z,1024.91
2016-10-25T09:23:59.376Z,1024.98
2016-10-25T09:28:59.323Z,1025.04
2016-10-25T09:33:59.271Z,1025.13
2016-10-25T09:38:59.219Z,1025.15
2016-10-25T09:43:59.167Z,1025.13
2016-10-25T09:48:59.111Z,1025.09
2016-10-25T09:53:59.061Z,1025.07
2016-10-25T09:58:59.003Z,1025.14
2016-10-25T10:03:58.949Z,1025.12
2016-10-25T10:08:58.894Z,1025.2
2016-10-25T10:13:58.843Z,1025.33
2016-10-25T10:18:58.789Z,1025.39
2016-10-25T10:23:58.734Z,1025.43
2016-10-25T10:28:58.685Z,1025.35
2016-10-25T10:33:58.626Z,1025.44
2016-10-25T10:38:58.573Z,1025.47
2016-10-25T10:43:58.522Z,1025.55
2016-10-25T10:48:58.471Z,1025.54
2016-10-25T10:53:58.420Z,1025.6
2016-10-25T10:58:58.371Z,1025.59
2016-10-25T11:03:58.320Z,1025.66
2016-10-25T11:08:58.270Z,1025.69
2016-10-25T11:13:58.218Z,1025.76
2016-10-25T11:18:58.176Z,1025.83
2016-10-25T11:23:58.120Z,1025.83
2016-10-25T11:28:58.070Z,1025.77
2016-10-25T11:33:58.018Z,1025.7
2016-10-25T11:38:57.968Z,1025.75
2016-10-25T11:43:57.913Z,1025.79
2016-10-25T11:48:57.866Z,1025.79
2016-10-25T11:53:57.816Z,1025.81
2016-10-25T11:58:57.763Z,1025.87
2016-10-25T12:03:57.716Z,1025.86
2016-10-25T12:08:57.664Z,1025.84
2016-10-25T12:13:57.610Z,1025.84
2016-10-25T12:18:57.560Z,1025.88
2016-10-25T12:23:57.510Z,1025.96
2016-10-25T12:28:57.456Z,1026.11
2016-10-25T12:33:57.406Z,1026.05
2016-10-25T12:38:57.356Z,1026.05
2016-10-25T12:43:57.306Z,1026.1
2016-10-25T12:48:57.254Z,1026.17
2016-10-25T12:53:57.204Z,1026.21
2016-10-25T12:58:57.154Z,1026.25
2016-10-25T13:03:57.102Z,1026.27
2016-10-25T13:08:57.050Z,1026.24
2016-10-25T13:13:57.004Z,1026.23
2016-10-25T13:18:56.955Z,1026.28
2016-10-25T13:23:56.898Z,1026.27
2016-10-25T13:28:56.846Z,1026.37
2016-10-25T13:33:56.795Z,1026.43
2016-10-25T13:38:56.741Z,1026.5
2016-10-25T13:43:56.686Z,1026.54
2016-10-25T13:48:56.642Z,1026.55
2016-10-25T13:53:56.582Z,1026.62
2016-10-25T13:58:56.528Z,1026.64
2016-10-25T14:03:56.476Z,1026.67
2016-10-25T14:08:56.426Z,1026.67
2016-10-25T14:13:56.372Z,1026.75
2016-10-25T14:18:56.320Z,1026.79
2016-10-25T14:23:56.270Z,1026.83
2016-10-25T14:28:56.220Z,1026.88
2016-10-25T14:33:56.170Z,1026.88
2016-10-25T14:38:56.118Z,1026.9
2016-10-25T14:43:56.068Z,1026.96
2016-10-25T14:48:56.024Z,1026.99
2016-10-25T14:53:55.967Z,1026.96
2016-10-25T14:58:55.919Z,1026.94
2016-10-25T15:03:55.882Z,1026.9
2016-10-25T15:08:55.816Z,1026.94
2016-10-25T15:13:55.767Z,1026.96
2016-10-25T15:18:55.716Z,1026.89
2016-10-25T15:23:55.666Z,1026.94
2016-10-25T15:28:55.615Z,1026.94
2016-10-25T15:33:55.569Z,1026.89
2016-10-25T15:38:55.515Z,1026.86
2016-10-25T15:43:55.466Z,1026.94
2016-10-25T15:48:55.414Z,1026.96
2016-10-25T15:53:55.364Z,1027
2016-10-25T15:58:55.317Z,1027.04
2016-10-25T16:03:55.264Z,1027.11
2016-10-25T16:08:55.212Z,1027.24
2016-10-25T16:13:55.163Z,1027.35
2016-10-25T16:18:55.115Z,1027.41
2016-10-25T16:23:55.063Z,1027.46
2016-10-25T16:28:55.012Z,1027.48
2016-10-25T16:33:54.962Z,1027.61
2016-10-25T16:38:54.916Z,1027.69
2016-10-25T16:43:54.865Z,1027.84
2016-10-25T16:48:54.817Z,1027.93
2016-10-25T16:53:54.767Z,1027.93
2016-10-25T16:58:54.719Z,1028.09
2016-10-25T17:03:54.669Z,1028.15
2016-10-25T17:08:54.621Z,1028.25
2016-10-25T17:13:54.573Z,1028.25
2016-10-25T17:18:54.527Z,1028.25
2016-10-25T17:23:54.488Z,1028.27
2016-10-25T17:28:54.431Z,1028.35
2016-10-25T17:33:54.394Z,1028.45
2016-10-25T17:38:54.340Z,1028.55
2016-10-25T17:43:54.296Z,1028.51
2016-10-25T17:48:54.246Z,1028.57
2016-10-25T17:53:54.202Z,1028.59
2016-10-25T17:58:54.147Z,1028.56
2016-10-25T18:03:54.105Z,1028.49
2016-10-25T18:08:54.160Z,1028.51
2016-10-25T18:13:54.005Z,1028.56
2016-10-25T18:18:54.069Z,1028.53
2016-10-25T18:23:53.935Z,1028.66
2016-10-25T18:28:53.991Z,1028.72
2016-10-25T18:33:53.870Z,1028.8
2016-10-25T18:38:53.796Z,1028.8
2016-10-25T18:43:53.775Z,1028.76
2016-10-25T18:48:53.719Z,1028.79
2016-10-25T18:53:53.660Z,1028.8
2016-10-25T18:58:53.623Z,1028.84
2016-10-25T19:03:53.570Z,1028.84
2016-10-25T19:08:53.533Z,1028.94
2016-10-25T19:13:53.618Z,1029.01
2016-10-25T19:18:53.582Z,1029.09
2016-10-25T19:23:53.444Z,1029.13
2016-10-25T19:28:53.406Z,1029.13
2016-10-25T19:33:53.361Z,1029.16
2016-10-25T19:38:53.420Z,1029.12
2016-10-25T19:43:53.286Z,1029.2
2016-10-25T19:48:53.241Z,1029.26
2016-10-25T19:53:53.193Z,1029.34
2016-10-25T19:58:53.155Z,1029.44
2016-10-25T20:03:53.066Z,1029.45
2016-10-25T20:08:53.023Z,1029.53
2016-10-25T20:13:52.990Z,1029.52
2016-10-25T20:18:52.935Z,1029.54
2016-10-25T20:23:52.875Z,1029.53
2016-10-25T20:28:52.842Z,1029.56
2016-10-25T20:33:52.768Z,1029.57
2016-10-25T20:38:52.717Z,1029.57
2016-10-25T20:43:52.673Z,1029.54
2016-10-25T20:48:52.717Z,1029.49
2016-10-25T20:53:52.571Z,1029.48
2016-10-25T20:58:52.524Z,1029.46
2016-10-25T21:03:52.482Z,1029.55
2016-10-25T21:08:52.438Z,1029.49
2016-10-25T21:13:52.491Z,1029.55
2016-10-25T21:18:52.344Z,1029.5
2016-10-25T21:23:52.399Z,1029.4
2016-10-25T21:28:52.253Z,1029.27
2016-10-25T21:33:52.208Z,1029.31
2016-10-25T21:38:52.162Z,1029.4
2016-10-25T21:43:52.115Z,1029.41
2016-10-25T21:48:52.067Z,1029.39
2016-10-25T21:53:52.018Z,1029.43
2016-10-25T21:58:52.068Z,1029.5
2016-10-25T22:03:51.919Z,1029.49
2016-10-25T22:08:51.970Z,1029.48
2016-10-25T22:13:51.818Z,1029.58
2016-10-25T22:18:51.770Z,1029.63
2016-10-25T22:23:51.715Z,1029.64
2016-10-25T22:28:51.666Z,1029.63
2016-10-25T22:33:51.611Z,1029.61
2016-10-25T22:38:51.565Z,1029.66
2016-10-25T22:43:51.511Z,1029.64
2016-10-25T22:48:51.559Z,1029.67
2016-10-25T22:53:51.412Z,1029.65
2016-10-25T22:58:51.358Z,1029.65
2016-10-25T23:03:51.307Z,1029.63
2016-10-25T23:08:51.257Z,1029.67
2016-10-25T23:13:51.207Z,1029.62
2016-10-25T23:18:51.157Z,1029.78
2016-10-25T23:23:51.107Z,1029.78
2016-10-25T23:28:51.057Z,1029.82
2016-10-25T23:33:51.006Z,1029.85
2016-10-25T23:38:51.057Z,1029.81
2016-10-25T23:43:50.903Z,1029.74
2016-10-25T23:48:50.952Z,1029.72
2016-10-25T23:53:50.801Z,1029.68
2016-10-25T23:58:50.750Z,1029.68
